createdAt,value
2022-12-16T00:02:24.396Z,15.55
2022-12-16T00:04:50.837Z,14.23
2022-12-16T00:07:17.182Z,14.13
2022-12-16T00:09:43.540Z,14.45
2022-12-16T00:12:09.946Z,17.20
2022-12-16T00:14:36.276Z,13.10
2022-12-16T00:17:02.631Z,12.85
2022-12-16T00:19:29.004Z,12.27
2022-12-16T00:21:55.353Z,12.82
2022-12-16T00:24:21.866Z,13.68
2022-12-16T00:26:48.265Z,13.10
2022-12-16T00:29:14.625Z,12.43
2022-12-16T00:31:41.006Z,13.45
2022-12-16T00:34:07.485Z,13.18
2022-12-16T00:36:34.674Z,11.80
2022-12-16T00:39:01.133Z,11.20
2022-12-16T00:41:27.456Z,11.98
2022-12-16T00:43:53.813Z,12.25
2022-12-16T00:46:21.596Z,11.77
2022-12-16T00:48:48.088Z,10.40
2022-12-16T00:51:14.443Z,11.63
2022-12-16T00:53:40.936Z,11.23
2022-12-16T00:56:08.904Z,10.55
2022-12-16T00:58:36.023Z,11.32
2022-12-16T01:01:02.870Z,11.23
2022-12-16T01:03:29.433Z,12.10
2022-12-16T01:05:55.873Z,11.07
2022-12-16T01:08:22.407Z,10.55
2022-12-16T01:10:52.477Z,10.35
2022-12-16T01:13:19.454Z,11.15
2022-12-16T01:15:46.159Z,10.82
2022-12-16T01:18:12.495Z,10.60
2022-12-16T01:20:38.845Z,11.07
2022-12-16T01:23:05.435Z,10.75
2022-12-16T01:25:32.245Z,10.45
2022-12-16T01:27:58.606Z,10.75
2022-12-16T01:30:25.216Z,11.20
2022-12-16T01:32:51.576Z,10.02
2022-12-16T01:35:51.308Z,10.48
2022-12-16T01:38:05.125Z,10.68
2022-12-16T01:40:31.537Z,12.52
2022-12-16T01:42:57.900Z,11.63
2022-12-16T01:45:30.235Z,12.43
2022-12-16T01:47:58.980Z,11.10
2022-12-16T01:50:25.750Z,11.45
2022-12-16T01:52:55.599Z,12.02
2022-12-16T01:55:24.331Z,12.00
2022-12-16T01:58:00.760Z,11.80
2022-12-16T02:00:27.148Z,12.48
2022-12-16T02:02:54.008Z,11.43
2022-12-16T02:05:21.531Z,11.48
2022-12-16T02:08:11.267Z,12.02
2022-12-16T02:10:37.840Z,12.05
2022-12-16T02:13:15.826Z,11.05
2022-12-16T02:15:47.977Z,11.98
2022-12-16T02:18:26.579Z,12.75
2022-12-16T02:20:55.890Z,12.40
2022-12-16T02:23:26.174Z,11.65
2022-12-16T02:26:01.484Z,12.82
2022-12-16T02:28:30.831Z,11.88
2022-12-16T02:31:06.555Z,13.10
2022-12-16T02:33:44.340Z,14.20
2022-12-16T02:36:22.037Z,12.20
2022-12-16T02:38:56.414Z,11.23
2022-12-16T02:41:32.033Z,13.15
2022-12-16T02:44:03.391Z,12.48
2022-12-16T02:46:33.125Z,14.50
2022-12-16T02:49:14.860Z,14.82
2022-12-16T02:51:41.611Z,14.27
2022-12-16T02:54:09.096Z,15.90
2022-12-16T02:56:54.222Z,16.02
2022-12-16T02:59:38.253Z,15.88
2022-12-16T03:02:10.360Z,15.73
2022-12-16T03:04:48.755Z,16.85
2022-12-16T03:07:17.883Z,18.02
2022-12-16T03:09:45.392Z,17.02
2022-12-16T03:12:13.470Z,17.55
2022-12-16T03:14:41.658Z,17.65
2022-12-16T03:17:08.887Z,18.90
2022-12-16T03:19:38.076Z,19.73
2022-12-16T03:22:24.776Z,19.33
2022-12-16T03:24:51.124Z,18.70
2022-12-16T03:27:20.524Z,19.15
2022-12-16T03:29:52.684Z,18.45
2022-12-16T03:32:21.806Z,19.58
2022-12-16T03:34:59.718Z,18.42
2022-12-16T03:37:28.575Z,19.17
2022-12-16T03:39:57.346Z,19.58
2022-12-16T03:42:25.278Z,19.70
2022-12-16T03:44:51.741Z,21.33
2022-12-16T03:47:23.637Z,20.55
2022-12-16T03:49:50.582Z,21.23
2022-12-16T03:52:17.127Z,20.65
2022-12-16T03:54:43.567Z,20.92
2022-12-16T03:57:15.092Z,21.13
2022-12-16T03:59:42.136Z,19.77
2022-12-16T04:02:08.559Z,20.10
2022-12-16T04:04:35.080Z,19.70
2022-12-16T04:07:20.090Z,20.15
2022-12-16T04:09:48.156Z,19.63
2022-12-16T04:12:33.348Z,20.42
2022-12-16T04:15:38.146Z,19.75
2022-12-16T04:18:23.990Z,19.05
2022-12-16T04:21:11.455Z,19.35
2022-12-16T04:24:01.084Z,20.48
2022-12-16T04:26:27.489Z,19.42
2022-12-16T04:28:53.886Z,21.20
2022-12-16T04:31:20.401Z,18.80
2022-12-16T04:34:05.327Z,20.02
2022-12-16T04:36:50.110Z,20.42
2022-12-16T04:39:35.536Z,15.77
2022-12-16T04:42:29.475Z,21.60
2022-12-16T04:45:14.593Z,21.15
2022-12-16T04:48:01.977Z,22.30
2022-12-16T04:50:47.140Z,23.10
2022-12-16T04:53:32.054Z,24.88
2022-12-16T04:56:17.118Z,24.02
2022-12-16T04:59:01.753Z,29.45
2022-12-16T05:01:46.862Z,27.40
2022-12-16T05:04:31.782Z,22.85
2022-12-16T05:07:16.878Z,24.02
2022-12-16T05:10:01.683Z,26.80
2022-12-16T05:12:46.427Z,29.95
2022-12-16T05:15:31.511Z,28.27
2022-12-16T05:18:16.393Z,26.67
2022-12-16T05:21:01.334Z,19.45
2022-12-16T05:23:46.161Z,28.20
2022-12-16T05:26:31.005Z,28.48
2022-12-16T05:29:15.798Z,27.88
2022-12-16T05:32:01.023Z,20.50
2022-12-16T05:34:45.837Z,26.95
2022-12-16T05:37:30.752Z,28.17
2022-12-16T05:40:15.852Z,28.50
2022-12-16T05:43:03.662Z,31.08
2022-12-16T05:45:48.540Z,31.80
2022-12-16T05:48:33.861Z,35.05
2022-12-16T05:51:18.758Z,35.40
2022-12-16T05:54:03.644Z,28.58
2022-12-16T05:56:48.463Z,22.63
2022-12-16T05:59:35.850Z,24.88
2022-12-16T06:02:20.860Z,31.45
2022-12-16T06:05:15.197Z,25.80
2022-12-16T06:07:59.935Z,25.33
2022-12-16T06:10:44.982Z,23.40
2022-12-16T06:13:31.858Z,27.50
2022-12-16T06:16:16.860Z,29.98
2022-12-16T06:19:02.992Z,26.15
2022-12-16T06:21:47.934Z,25.30
2022-12-16T06:24:32.716Z,26.38
2022-12-16T06:27:17.480Z,26.38
2022-12-16T06:30:02.422Z,27.88
2022-12-16T06:32:47.252Z,24.13
2022-12-16T06:35:32.061Z,22.75
2022-12-16T06:38:16.973Z,17.27
2022-12-16T06:41:01.814Z,23.75
2022-12-16T06:43:46.587Z,27.73
2022-12-16T06:46:31.476Z,20.10
2022-12-16T06:49:16.733Z,23.08
2022-12-16T06:52:01.574Z,30.00
2022-12-16T06:54:46.616Z,27.13
2022-12-16T06:57:31.542Z,21.77
2022-12-16T07:00:16.485Z,25.58
2022-12-16T07:03:01.424Z,25.60
2022-12-16T07:05:46.408Z,23.42
2022-12-16T07:08:31.230Z,22.33
2022-12-16T07:11:17.405Z,16.75
2022-12-16T07:14:02.985Z,20.58
2022-12-16T07:16:47.804Z,22.67
2022-12-16T07:19:33.002Z,21.08
2022-12-16T07:22:17.866Z,21.98
2022-12-16T07:25:02.963Z,22.98
2022-12-16T07:27:47.812Z,21.95
2022-12-16T07:30:32.540Z,47.08
2022-12-16T07:33:17.405Z,20.15
2022-12-16T07:36:02.331Z,21.50
2022-12-16T07:38:47.180Z,21.52
2022-12-16T07:41:32.053Z,16.10
2022-12-16T07:44:16.962Z,16.10
2022-12-16T07:47:01.860Z,21.67
2022-12-16T07:49:46.687Z,21.85
2022-12-16T07:52:31.626Z,21.50
2022-12-16T07:55:16.349Z,18.00
2022-12-16T07:58:01.293Z,15.95
2022-12-16T08:00:46.025Z,22.27
2022-12-16T08:03:31.215Z,22.48
2022-12-16T08:09:01.056Z,20.80
2022-12-16T08:11:45.988Z,22.45
2022-12-16T08:14:30.992Z,22.75
2022-12-16T08:17:15.849Z,23.65
2022-12-16T08:20:00.855Z,23.30
2022-12-16T08:22:45.876Z,16.77
2022-12-16T08:25:30.743Z,21.45
2022-12-16T08:28:15.583Z,22.33
2022-12-16T08:31:00.554Z,23.80
2022-12-16T08:33:45.829Z,21.10
2022-12-16T08:36:30.723Z,21.35
2022-12-16T08:39:15.573Z,21.92
2022-12-16T08:42:00.480Z,16.88
2022-12-16T08:44:52.799Z,23.30
2022-12-16T08:47:37.524Z,21.23
2022-12-16T08:50:23.212Z,22.90
2022-12-16T08:53:08.116Z,22.15
2022-12-16T08:55:55.941Z,22.98
2022-12-16T08:58:40.882Z,23.63
2022-12-16T09:01:25.682Z,23.95
2022-12-16T09:04:10.984Z,17.45
2022-12-16T09:06:56.039Z,22.85
2022-12-16T09:09:40.766Z,16.50
2022-12-16T09:12:25.534Z,22.33
2022-12-16T09:15:10.251Z,24.80
2022-12-16T09:17:55.124Z,23.63
2022-12-16T09:20:40.793Z,23.50
2022-12-16T09:23:30.240Z,24.95
2022-12-16T09:26:15.436Z,24.08
2022-12-16T09:29:00.309Z,24.17
2022-12-16T09:31:45.277Z,25.05
2022-12-16T09:34:30.075Z,25.90
2022-12-16T09:37:15.002Z,24.73
2022-12-16T09:39:59.706Z,24.15
2022-12-16T09:43:02.833Z,18.42
2022-12-16T09:45:56.284Z,25.13
2022-12-16T09:48:59.671Z,25.17
2022-12-16T09:51:44.445Z,28.15
2022-12-16T09:54:33.054Z,28.17
2022-12-16T09:57:19.131Z,33.38
2022-12-16T10:00:08.117Z,28.95
2022-12-16T10:02:53.016Z,27.13
2022-12-16T10:05:40.340Z,29.58
2022-12-16T10:08:42.085Z,35.30
2022-12-16T10:11:40.585Z,30.48
2022-12-16T10:14:25.471Z,33.25
2022-12-16T10:17:14.788Z,30.25
2022-12-16T10:20:02.372Z,30.88
2022-12-16T10:22:50.918Z,29.85
2022-12-16T10:25:39.259Z,32.10
2022-12-16T10:28:37.359Z,33.85
2022-12-16T10:31:31.782Z,35.25
2022-12-16T10:34:16.838Z,28.08
2022-12-16T10:37:07.383Z,39.17
2022-12-16T10:39:56.636Z,31.35
2022-12-16T10:42:44.930Z,26.70
2022-12-16T10:45:38.082Z,28.23
2022-12-16T10:48:23.029Z,28.05
2022-12-16T10:51:07.853Z,26.55
2022-12-16T10:53:53.992Z,27.77
2022-12-16T10:56:45.031Z,27.15
2022-12-16T10:59:30.603Z,27.73
2022-12-16T11:05:00.695Z,32.05
2022-12-16T11:07:57.895Z,33.13
2022-12-16T11:10:45.942Z,33.30
2022-12-16T11:13:42.414Z,28.40
2022-12-16T11:16:36.386Z,30.30
2022-12-16T11:19:21.588Z,29.05
2022-12-16T11:22:06.923Z,31.05
2022-12-16T11:24:52.216Z,27.42
2022-12-16T11:27:40.254Z,26.10
2022-12-16T11:30:34.395Z,27.88
2022-12-16T11:33:21.382Z,27.60
2022-12-16T11:36:11.190Z,29.65
2022-12-16T11:39:04.658Z,33.75
2022-12-16T11:41:55.055Z,35.13
2022-12-16T11:44:44.425Z,31.45
2022-12-16T11:47:48.265Z,32.90
2022-12-16T11:50:34.766Z,33.83
2022-12-16T11:53:31.099Z,34.65
2022-12-16T11:56:16.725Z,35.03
2022-12-16T11:59:06.082Z,31.90
2022-12-16T12:01:58.640Z,35.97
2022-12-16T12:04:43.792Z,38.65
2022-12-16T12:07:29.039Z,31.25
2022-12-16T12:10:20.887Z,31.67
2022-12-16T12:13:14.888Z,32.05
2022-12-16T12:16:04.893Z,32.50
2022-12-16T12:19:09.942Z,33.10
2022-12-16T12:22:01.262Z,33.45
2022-12-16T12:24:58.025Z,33.47
2022-12-16T12:27:49.283Z,33.35
2022-12-16T12:30:36.526Z,32.28
2022-12-16T12:33:46.176Z,32.97
2022-12-16T12:36:40.254Z,34.67
2022-12-16T12:39:41.819Z,31.73
2022-12-16T12:43:02.281Z,33.15
2022-12-16T12:46:06.086Z,34.97
2022-12-16T12:48:59.490Z,33.05
2022-12-16T12:51:48.403Z,34.38
2022-12-16T12:54:52.397Z,32.92
2022-12-16T12:57:39.459Z,32.92
2022-12-16T13:00:28.902Z,32.72
2022-12-16T13:03:26.254Z,32.03
2022-12-16T13:06:11.500Z,34.35
2022-12-16T13:08:56.448Z,34.78
2022-12-16T13:11:42.199Z,34.13
2022-12-16T13:14:45.980Z,34.67
2022-12-16T13:17:30.903Z,35.35
2022-12-16T13:20:16.184Z,35.45
2022-12-16T13:23:02.078Z,36.95
2022-12-16T13:25:53.239Z,34.05
2022-12-16T13:28:43.109Z,36.17
2022-12-16T13:31:28.528Z,35.38
2022-12-16T13:36:59.002Z,34.90
2022-12-16T13:39:45.358Z,33.78
2022-12-16T13:42:49.093Z,37.70
2022-12-16T13:45:35.399Z,36.47
2022-12-16T13:48:21.789Z,39.53
2022-12-16T13:51:08.151Z,35.95
2022-12-16T13:53:57.132Z,36.55
2022-12-16T13:56:46.073Z,38.47
2022-12-16T13:59:40.037Z,38.33
2022-12-16T14:02:37.470Z,38.95
2022-12-16T14:05:23.187Z,36.80
2022-12-16T14:08:10.493Z,36.97
2022-12-16T14:10:57.921Z,38.10
2022-12-16T14:13:56.074Z,37.10
2022-12-16T14:17:01.615Z,40.25
2022-12-16T14:19:46.731Z,38.63
2022-12-16T14:22:34.487Z,38.03
2022-12-16T14:25:43.798Z,38.88
2022-12-16T14:28:47.417Z,38.78
2022-12-16T14:31:50.688Z,39.83
2022-12-16T14:34:38.563Z,30.42
2022-12-16T14:37:31.695Z,41.97
2022-12-16T14:40:16.506Z,41.08
2022-12-16T14:43:01.793Z,41.80
2022-12-16T14:45:48.910Z,43.33
2022-12-16T14:48:49.268Z,43.03
2022-12-16T14:51:46.182Z,41.78
2022-12-16T14:54:42.552Z,42.85
2022-12-16T14:57:37.507Z,42.63
2022-12-16T15:00:22.434Z,42.93
2022-12-16T15:03:08.926Z,41.75
2022-12-16T15:05:56.244Z,42.30
2022-12-16T15:08:41.556Z,44.20
2022-12-16T15:11:28.361Z,42.38
2022-12-16T15:14:14.679Z,41.35
2022-12-16T15:17:01.945Z,40.10
2022-12-16T15:19:50.497Z,43.33
2022-12-16T15:22:36.035Z,43.35
2022-12-16T15:25:20.859Z,43.45
2022-12-16T15:28:15.564Z,40.72
2022-12-16T15:31:04.790Z,38.55
2022-12-16T15:33:51.384Z,42.20
2022-12-16T15:36:47.567Z,42.28
2022-12-16T15:39:41.587Z,39.60
2022-12-16T15:42:45.574Z,40.65
2022-12-16T15:45:50.443Z,39.70
2022-12-16T15:48:39.863Z,40.55
2022-12-16T15:51:38.689Z,43.67
2022-12-16T15:54:23.643Z,43.90
2022-12-16T15:57:08.823Z,42.97
2022-12-16T15:59:54.633Z,43.05
2022-12-16T16:02:44.312Z,42.42
2022-12-16T16:05:42.805Z,40.92
2022-12-16T16:08:29.155Z,40.83
2022-12-16T16:11:14.593Z,39.25
2022-12-16T16:14:06.220Z,39.88
2022-12-16T16:16:54.721Z,38.70
2022-12-16T16:22:29.704Z,36.80
2022-12-16T16:25:14.633Z,39.22
2022-12-16T16:27:59.617Z,40.05
2022-12-16T16:30:44.574Z,41.42
2022-12-16T16:33:29.737Z,42.35
2022-12-16T16:36:16.370Z,42.30
2022-12-16T16:39:01.149Z,39.30
2022-12-16T16:41:46.289Z,41.03
2022-12-16T16:44:31.003Z,39.78
2022-12-16T16:47:16.326Z,38.90
2022-12-16T16:52:46.788Z,36.13
2022-12-16T16:58:17.820Z,38.03
2022-12-16T17:01:02.664Z,40.85
2022-12-16T17:03:48.092Z,40.88
2022-12-16T17:06:33.282Z,40.33
2022-12-16T17:09:18.268Z,40.35
2022-12-16T17:12:03.017Z,41.28
2022-12-16T17:14:47.949Z,40.72
2022-12-16T17:17:32.621Z,43.70
2022-12-16T17:20:17.527Z,43.15
2022-12-16T17:23:02.317Z,41.20
2022-12-16T17:25:47.276Z,39.40
2022-12-16T17:28:38.635Z,40.05
2022-12-16T17:31:23.723Z,39.50
2022-12-16T17:34:08.848Z,38.95
2022-12-16T17:36:53.675Z,39.38
2022-12-16T17:39:38.579Z,38.05
2022-12-16T17:42:23.728Z,41.15
2022-12-16T17:45:08.477Z,40.92
2022-12-16T17:47:53.379Z,41.70
2022-12-16T17:50:38.274Z,42.53
2022-12-16T17:53:23.114Z,43.10
2022-12-16T17:56:08.192Z,32.45
2022-12-16T17:58:56.971Z,41.97
2022-12-16T18:01:42.402Z,41.70
2022-12-16T18:04:27.734Z,41.30
2022-12-16T18:07:12.904Z,40.60
2022-12-16T18:09:57.842Z,42.03
2022-12-16T18:12:43.127Z,41.97
2022-12-16T18:15:28.591Z,40.38
2022-12-16T18:18:13.448Z,41.67
2022-12-16T18:20:58.286Z,39.28
2022-12-16T18:23:43.250Z,30.42
2022-12-16T18:26:28.580Z,39.47
2022-12-16T18:29:13.991Z,39.47
2022-12-16T18:34:44.167Z,37.08
2022-12-16T18:37:29.976Z,38.20
2022-12-16T18:40:14.860Z,38.10
2022-12-16T18:42:59.810Z,29.95
2022-12-16T18:45:44.678Z,38.90
2022-12-16T18:48:29.715Z,39.17
2022-12-16T18:51:15.808Z,38.97
2022-12-16T18:54:00.532Z,38.58
2022-12-16T18:56:45.250Z,39.90
2022-12-16T18:59:30.093Z,39.40
2022-12-16T19:02:14.981Z,37.42
2022-12-16T19:05:00.167Z,38.85
2022-12-16T19:07:45.146Z,38.95
2022-12-16T19:10:29.975Z,38.30
2022-12-16T19:13:15.830Z,40.45
2022-12-16T19:16:01.372Z,39.92
2022-12-16T19:18:46.182Z,40.30
2022-12-16T19:21:31.040Z,30.20
2022-12-16T19:24:15.781Z,29.80
2022-12-16T19:27:01.853Z,40.03
2022-12-16T19:29:46.614Z,39.15
2022-12-16T19:32:31.760Z,38.63
2022-12-16T19:35:16.873Z,39.15
2022-12-16T19:38:01.823Z,37.83
2022-12-16T19:40:46.582Z,38.50
2022-12-16T19:43:31.486Z,39.80
2022-12-16T19:46:16.307Z,41.08
2022-12-16T19:49:01.534Z,39.67
2022-12-16T19:51:46.905Z,38.40
2022-12-16T19:57:16.584Z,38.72
2022-12-16T20:00:01.832Z,39.38
2022-12-16T20:02:46.911Z,38.90
2022-12-16T20:05:31.957Z,40.65
2022-12-16T20:08:16.864Z,41.00
2022-12-16T20:11:02.352Z,31.92
2022-12-16T20:16:32.753Z,37.10
2022-12-16T20:19:17.507Z,39.60
2022-12-16T20:22:06.923Z,41.83
2022-12-16T20:24:56.213Z,39.75
2022-12-16T20:27:41.785Z,39.30
2022-12-16T20:30:27.105Z,42.42
2022-12-16T20:33:12.015Z,39.72
2022-12-16T20:35:56.773Z,30.73
2022-12-16T20:38:41.691Z,40.75
2022-12-16T20:41:34.015Z,41.47
2022-12-16T20:44:18.900Z,40.55
2022-12-16T20:47:03.722Z,41.60
2022-12-16T20:49:48.754Z,31.58
2022-12-16T20:52:33.572Z,41.38
2022-12-16T20:55:18.415Z,42.30
2022-12-16T20:58:03.257Z,41.70
2022-12-16T21:00:48.284Z,41.70
2022-12-16T21:03:33.365Z,41.65
2022-12-16T21:06:18.406Z,42.92
2022-12-16T21:09:03.473Z,43.53
2022-12-16T21:11:48.441Z,43.08
2022-12-16T21:14:33.296Z,42.17
2022-12-16T21:17:18.143Z,43.08
2022-12-16T21:20:03.202Z,43.63
2022-12-16T21:22:48.057Z,42.42
2022-12-16T21:25:33.035Z,42.80
2022-12-16T21:28:18.316Z,41.28
2022-12-16T21:31:03.157Z,41.83
2022-12-16T21:33:48.407Z,41.00
2022-12-16T21:36:33.703Z,43.83
2022-12-16T21:39:18.685Z,42.38
2022-12-16T21:42:03.537Z,44.30
2022-12-16T21:44:49.491Z,42.15
2022-12-16T21:47:34.220Z,43.45
2022-12-16T21:50:19.040Z,30.67
2022-12-16T21:53:05.920Z,31.45
2022-12-16T21:55:50.728Z,40.55
2022-12-16T21:58:36.018Z,42.25
2022-12-16T22:01:20.677Z,41.13
2022-12-16T22:04:05.521Z,32.22
2022-12-16T22:06:50.209Z,41.22
2022-12-16T22:09:35.624Z,43.67
2022-12-16T22:15:05.451Z,41.25
2022-12-16T22:17:57.717Z,42.53
2022-12-16T22:20:43.080Z,41.45
2022-12-16T22:23:28.416Z,41.58
2022-12-16T22:28:58.508Z,41.83
2022-12-16T22:31:43.422Z,31.15
2022-12-16T22:34:28.183Z,40.80
2022-12-16T22:37:13.073Z,42.45
2022-12-16T22:39:57.973Z,42.75
2022-12-16T22:42:42.737Z,42.30
2022-12-16T22:45:28.181Z,42.28
2022-12-16T22:50:58.058Z,39.03
2022-12-16T22:53:43.196Z,42.05
2022-12-16T22:59:16.248Z,40.10
2022-12-16T23:02:01.067Z,40.30
2022-12-16T23:04:46.077Z,31.02
2022-12-16T23:07:30.891Z,39.38
2022-12-16T23:10:15.949Z,41.63
2022-12-16T23:13:01.062Z,40.33
2022-12-16T23:15:45.973Z,40.25
2022-12-16T23:18:31.236Z,41.03
2022-12-16T23:21:16.002Z,42.78
2022-12-16T23:24:00.893Z,40.42
2022-12-16T23:26:45.746Z,41.58
2022-12-16T23:29:30.848Z,40.70
2022-12-16T23:32:15.559Z,38.33
2022-12-16T23:35:00.380Z,40.67
2022-12-16T23:37:45.384Z,39.08
2022-12-16T23:40:30.695Z,38.08
2022-12-16T23:43:15.601Z,37.65
2022-12-16T23:46:01.182Z,37.70
2022-12-16T23:48:46.471Z,40.30
2022-12-16T23:51:31.358Z,39.67
2022-12-16T23:54:16.384Z,29.55
2022-12-16T23:57:01.268Z,38.50
2022-12-16T23:59:46.068Z,41.25
